Aérodrome :
LOGIN :

S'inscrire | Disclaimer

   EN    FR    IT 

 










Légende :    VFR   VFR Marginal   IFR   IFR Intensif   IFR Très Intensif
Visi : 
Plafond : 
>= 8 km
>= 3000ft
5 à 8 km
1000 à 3000 ft
1500m à 5 km
500 à 1000 ft
800 à 1500m
200 à 500 ft
< 800m
< 200 ft
Symboles :   Orages  Brouillard  Fortes neiges  Fortes précipitations  Vent > 20 kt
SIGMETs :   Divers  Orages  Givrage  Turbulence  Onde Orograph.  Cendres Volcan.







- Altitude de l'aérodrome : 14 ft
- Code IATA : BRE


EDDW - Bremen Neuenland

DERNIER METAR :
  • 181450Z 20006KT 150V240 CAVOK 26/10 Q1010 NOSIG

METARs EXPIRÉS :
  • 181420Z 17005KT 110V220 CAVOK 25/10 Q1010 NOSIG
  • 181350Z 19006KT 130V240 CAVOK 26/11 Q1010 NOSIG
  • 181320Z 18007KT 140V260 CAVOK 26/10 Q1010 NOSIG
  • 181250Z 21007KT 170V250 CAVOK 25/10 Q1010 NOSIG
  • 181220Z 20007KT 160V270 CAVOK 25/10 Q1011 NOSIG

TAF TAF EDDW
Valide du 18 à 12h jusqu'au 19 à 12h UTC


181100Z 1812/1912 19005KT 9999 FEW045
BECMG 1816/1818 VRB02KT
PROB30
TEMPO 1818/1821 SHRA BKN040CB
BECMG 1902/1904 20005KT 4500 BR BKN008
TEMPO 1904/1908 2500 -DZRA BKN004
BECMG 1906/1908 9999 SCT025
Pas de NOTAMs connus pour ce terrain.



MET'MAP, la Météo Aéronautique d'un coup d'oeil ! - Copyright ORBIFLY Décembre 2007 - Disclaimer

ORBIFLY MET'MAP TEAM :

Programmation & Développement : Alexandra Zaïnal
Conception & Développement : Baudouin d'Aumeries
Co-Programmation & Développement : Marc-Olivier Méhu
Soutien technique & logistique : Manuel Goepfert

Contact : metmap@orbifly.com




SOURCES & CREDITS :

   NOAA